createdAt,value
2023-04-08T00:00:46.244Z,101036.13
2023-04-08T00:06:48.891Z,101033.94
2023-04-08T00:12:57.036Z,101025.00
2023-04-08T00:18:59.192Z,101036.38
2023-04-08T00:25:02.134Z,101034.50
2023-04-08T00:31:05.057Z,101029.53
2023-04-08T00:37:07.516Z,101021.94
2023-04-08T00:43:09.671Z,101026.09
2023-04-08T00:49:13.005Z,101020.41
2023-04-08T00:55:18.056Z,101015.13
2023-04-08T01:01:32.149Z,101026.75
2023-04-08T01:07:41.825Z,101027.84
2023-04-08T01:13:46.535Z,101021.00
2023-04-08T01:19:50.967Z,101032.28
2023-04-08T01:25:54.516Z,101025.47
2023-04-08T01:31:58.091Z,101027.78
2023-04-08T01:38:05.878Z,101019.38
2023-04-08T01:44:10.551Z,101019.91
2023-04-08T01:50:14.023Z,101021.00
2023-04-08T01:56:17.545Z,101020.69
2023-04-08T02:02:25.399Z,101027.28
2023-04-08T02:08:27.804Z,101021.00
2023-04-08T02:14:30.429Z,101024.16
2023-04-08T02:20:48.214Z,101026.28
2023-04-08T02:26:52.374Z,101018.09
2023-04-08T02:32:54.994Z,101018.13
2023-04-08T02:38:59.088Z,101010.75
2023-04-08T02:45:01.259Z,101020.19
2023-04-08T02:51:04.414Z,101029.94
2023-04-08T02:57:08.254Z,101026.25
2023-04-08T03:03:11.151Z,101024.94
2023-04-08T03:09:14.438Z,101026.78
2023-04-08T03:15:17.297Z,101022.59
2023-04-08T03:21:19.553Z,101037.31
2023-04-08T03:27:22.874Z,101038.31
2023-04-08T03:33:25.569Z,101049.91
2023-04-08T03:39:28.938Z,101053.31
2023-04-08T03:45:32.340Z,101057.25
2023-04-08T03:51:34.585Z,101070.09
2023-04-08T03:57:36.837Z,101068.25
2023-04-08T04:03:39.077Z,101080.34
2023-04-08T04:09:41.642Z,101079.06
2023-04-08T04:15:45.792Z,101078.19
